Time;durP1;ratioP1;P1;durP2;ratioP2;P2;SDS_P1;SDS_P2;PMS_P1;PMS_P2;Temp;Humidity;BMP_temperature;BMP_pressure;BME280_temperature;BME280_humidity;BME280_pressure;Samples;Min_cycle;Max_cycle;Signal;HPM_P1;HPM_P2
2021/08/05 00:02:14;;;;;;;0.10;0.10;;;;;;;19.07;58.60;101292.78;5034828;28;20478;-96
2021/08/05 00:04:41;;;;;;;0.05;0.05;;;;;;;19.04;59.41;101273.28;5035442;28;20495;-96
2021/08/05 00:07:08;;;;;;;0.20;0.20;;;;;;;19.04;59.27;101275.97;5032519;28;20025;-96
2021/08/05 00:09:35;;;;;;;0.43;0.43;;;;;;;19.01;59.70;101278.81;5034490;28;20476;-96
2021/08/05 00:12:01;;;;;;;0.10;0.10;;;;;;;19.01;59.55;101276.97;5031071;28;20073;-95
2021/08/05 00:14:28;;;;;;;0.10;0.10;;;;;;;18.99;59.70;101275.31;5027800;28;20026;-96
2021/08/05 00:16:54;;;;;;;0.03;0.03;;;;;;;18.96;59.91;101276.34;5025587;28;20025;-96
2021/08/05 00:19:21;;;;;;;0.10;0.10;;;;;;;18.94;59.83;101272.88;5035333;28;20056;-96
2021/08/05 00:21:47;;;;;;;0.00;0.00;;;;;;;18.93;59.25;101260.38;5035008;28;20033;-96
2021/08/05 00:24:14;;;;;;;0.10;0.10;;;;;;;18.91;59.70;101264.94;5036276;28;20120;-96
2021/08/05 00:26:40;;;;;;;0.10;0.10;;;;;;;18.90;59.76;101265.84;5036945;28;20025;-96
2021/08/05 00:29:06;;;;;;;0.35;0.35;;;;;;;18.87;59.95;101257.97;5039742;28;20101;-96
2021/08/05 00:31:33;;;;;;;0.10;0.10;;;;;;;18.86;59.25;101264.28;5036107;28;20037;-96
2021/08/05 00:34:00;;;;;;;0.10;0.10;;;;;;;18.84;60.10;101258.09;5036495;28;20048;-96
2021/08/05 00:36:27;;;;;;;0.30;0.30;;;;;;;18.82;60.08;101260.88;5038257;28;20095;-96
2021/08/05 00:38:54;;;;;;;0.20;0.20;;;;;;;18.80;60.19;101252.00;5033736;28;20029;-95
2021/08/05 00:41:20;;;;;;;0.10;0.10;;;;;;;18.78;59.83;101258.41;5037386;28;20037;-95
2021/08/05 00:43:48;;;;;;;0.10;0.10;;;;;;;18.76;60.14;101258.47;5045540;28;20029;-95
2021/08/05 00:46:14;;;;;;;0.10;0.10;;;;;;;18.74;59.76;101252.28;5040448;28;20108;-95
2021/08/05 00:48:41;;;;;;;0.10;0.10;;;;;;;18.72;59.98;101252.38;5038284;28;20028;-96
2021/08/05 00:51:07;;;;;;;0.10;0.10;;;;;;;18.72;60.08;101251.53;5038776;28;20036;-96
2021/08/05 00:53:34;;;;;;;0.00;0.00;;;;;;;18.71;60.11;101247.09;5038416;28;20026;-95
2021/08/05 00:56:01;;;;;;;0.10;0.10;;;;;;;18.69;60.14;101240.91;5037682;28;20037;-95
2021/08/05 00:58:27;;;;;;;0.00;0.00;;;;;;;18.67;59.97;101241.00;5038025;28;20034;-96
2021/08/05 01:01:04;;;;;;;0.40;0.40;;;;;;;18.69;60.13;101244.50;5037409;28;20057;-95
2021/08/05 01:03:35;;;;;;;0.10;0.10;;;;;;;18.64;60.21;101241.16;5038229;28;20040;-95
2021/08/05 01:06:14;;;;;;;0.30;0.30;;;;;;;18.66;60.07;101238.41;5039501;28;20033;-95
2021/08/05 01:08:48;;;;;;;0.20;0.20;;;;;;;18.63;60.01;101241.22;5039813;28;20040;-94
2021/08/05 01:11:20;;;;;;;0.47;0.28;;;;;;;18.61;60.36;101249.34;5039800;28;20436;-96
2021/08/05 01:13:59;;;;;;;0.20;0.20;;;;;;;18.61;60.44;101243.97;5040836;28;20510;-95
2021/08/05 01:16:30;;;;;;;0.10;0.10;;;;;;;18.56;60.26;101238.81;5041133;28;20030;-95
2021/08/05 01:19:04;;;;;;;0.93;0.85;;;;;;;18.54;60.23;101230.00;5040990;28;20050;-96
2021/08/05 01:24:34;;;;;;;0.10;0.10;;;;;;;18.50;60.35;101227.50;5066068;27;20407;-96
2021/08/05 01:27:05;;;;;;;0.28;0.28;;;;;;;18.48;60.63;101234.75;5066544;28;20049;-96
2021/08/05 01:29:35;;;;;;;0.10;0.10;;;;;;;18.47;60.86;101224.97;5066847;28;20048;-96
2021/08/05 01:32:04;;;;;;;0.10;0.10;;;;;;;18.44;60.60;101220.59;5023245;28;20036;-96
2021/08/05 01:34:34;;;;;;;0.10;0.10;;;;;;;18.42;60.35;101220.69;5057820;28;20041;-96
2021/08/05 01:37:03;;;;;;;0.10;0.10;;;;;;;18.41;59.83;101218.94;5046128;28;20029;-96
2021/08/05 01:39:30;;;;;;;0.17;0.17;;;;;;;18.38;60.60;101212.84;5050842;28;20033;-94
2021/08/05 01:41:57;;;;;;;0.10;0.10;;;;;;;18.36;60.39;101217.44;5042115;28;20083;-95
2021/08/05 01:44:27;;;;;;;0.10;0.10;;;;;;;18.37;60.45;101211.13;5044281;28;20029;-95
2021/08/05 01:46:58;;;;;;;0.20;0.20;;;;;;;18.36;60.36;101212.94;5045838;28;20022;-95
2021/08/05 01:49:25;;;;;;;0.10;0.10;;;;;;;18.32;60.70;101208.66;5054119;28;20029;-93
2021/08/05 01:51:52;;;;;;;0.15;0.15;;;;;;;18.34;60.46;101214.81;5060779;28;20063;-96
2021/08/05 01:54:19;;;;;;;0.20;0.20;;;;;;;18.37;60.96;101211.13;5063597;28;20059;-96
2021/08/05 01:56:49;;;;;;;0.10;0.10;;;;;;;18.42;60.52;101204.59;5053360;28;20030;-96
2021/08/05 01:59:16;;;;;;;0.22;0.22;;;;;;;18.40;60.59;101206.47;5041620;28;20116;-95
2021/08/05 02:01:43;;;;;;;0.52;0.52;;;;;;;18.40;61.30;101203.78;5054094;28;20083;-96
2021/08/05 02:10:19;;;;;;;0.20;0.20;;;;;;;18.47;60.96;101198.13;5088939;27;20385;-96
2021/08/05 02:13:00;;;;;;;0.10;0.10;;;;;;;18.38;61.08;101192.28;5107036;28;20043;-96
2021/08/05 02:15:31;;;;;;;0.00;0.00;;;;;;;18.31;61.10;101190.81;5107688;28;20105;-96
2021/08/05 02:18:02;;;;;;;0.10;0.10;;;;;;;18.29;61.32;101195.38;5106364;28;20028;-96
2021/08/05 02:20:33;;;;;;;0.10;0.10;;;;;;;18.23;61.40;101183.13;5104993;28;20020;-96
2021/08/05 02:23:04;;;;;;;0.10;0.10;;;;;;;18.23;61.48;101184.94;5109308;28;20032;-96
2021/08/05 02:25:32;;;;;;;0.10;0.10;;;;;;;18.18;61.11;101186.97;5108563;28;20021;-96
2021/08/05 02:28:01;;;;;;;0.10;0.10;;;;;;;18.15;61.31;101185.28;5089329;28;20043;-96
2021/08/05 02:30:30;;;;;;;0.25;0.25;;;;;;;18.11;61.46;101187.25;5109331;28;20074;-95
2021/08/05 02:33:00;;;;;;;0.10;0.10;;;;;;;18.09;61.54;101188.25;5107893;28;20020;-96
2021/08/05 02:35:36;;;;;;;0.32;0.32;;;;;;;18.10;61.12;101174.78;5108636;28;20060;-96
2021/08/05 02:38:06;;;;;;;0.90;0.80;;;;;;;18.06;61.34;101183.91;5107528;28;20028;-96
2021/08/05 02:40:35;;;;;;;0.00;0.00;;;;;;;18.02;61.68;101176.06;5105042;28;20025;-96
2021/08/05 02:43:05;;;;;;;0.00;0.00;;;;;;;18.00;61.92;101184.19;5104430;28;20506;-96
2021/08/05 02:45:34;;;;;;;0.10;0.10;;;;;;;17.97;61.73;101176.31;5102511;28;20060;-96
2021/08/05 02:48:03;;;;;;;0.25;0.25;;;;;;;17.94;61.87;101176.44;5100458;28;20024;-96
2021/08/05 02:50:32;;;;;;;0.00;0.00;;;;;;;17.91;61.79;101180.09;5098750;28;20027;-96
2021/08/05 02:52:59;;;;;;;0.10;0.10;;;;;;;17.97;61.56;101176.31;5097519;28;20032;-96
2021/08/05 02:55:26;;;;;;;0.03;0.03;;;;;;;17.98;61.53;101178.06;5095088;28;20028;-96
2021/08/05 02:57:53;;;;;;;0.57;0.57;;;;;;;17.98;61.28;101178.06;5095099;28;20090;-96
2021/08/05 03:00:31;;;;;;;0.10;0.10;;;;;;;18.03;61.76;101180.50;5095474;28;20052;-96
2021/08/05 03:03:06;;;;;;;0.10;0.10;;;;;;;17.93;61.98;101177.31;5092671;28;20032;-95
2021/08/05 03:05:46;;;;;;;0.08;0.08;;;;;;;17.93;61.35;101180.00;5092046;28;20031;-94
2021/08/05 03:08:16;;;;;;;0.08;0.08;;;;;;;17.93;61.89;101174.66;5090766;28;20032;-94
2021/08/05 03:10:43;;;;;;;0.10;0.10;;;;;;;17.90;61.71;101174.81;5094010;28;20036;-96
2021/08/05 03:13:09;;;;;;;0.03;0.03;;;;;;;17.89;61.58;101173.06;5096003;28;20482;-96
2021/08/05 03:15:36;;;;;;;0.10;0.10;;;;;;;17.89;61.23;101173.91;5095148;28;20029;-96
2021/08/05 03:18:02;;;;;;;0.10;0.10;;;;;;;17.88;61.49;101174.00;5093952;28;20033;-96
2021/08/05 03:20:28;;;;;;;0.10;0.10;;;;;;;17.88;60.88;101161.47;5085766;28;20043;-96
2021/08/05 03:22:57;;;;;;;0.10;0.10;;;;;;;17.88;61.56;101174.88;5079437;28;20096;-95
2021/08/05 03:25:23;;;;;;;0.10;0.10;;;;;;;17.87;61.71;101173.13;5055491;28;20029;-96
2021/08/05 03:27:55;;;;;;;0.00;0.00;;;;;;;17.90;61.84;101180.16;5054434;28;20029;-96
2021/08/05 03:30:22;;;;;;;0.10;0.10;;;;;;;17.87;62.04;101169.56;5070238;28;20111;-96
2021/08/05 03:32:48;;;;;;;0.05;0.05;;;;;;;17.88;62.04;101171.31;5077034;28;20115;-95
2021/08/05 03:35:17;;;;;;;0.22;0.22;;;;;;;17.92;61.86;101172.94;5076684;28;20033;-96
2021/08/05 03:37:43;;;;;;;0.10;0.10;;;;;;;17.94;62.49;101165.72;5075467;28;20562;-94
2021/08/05 03:40:10;;;;;;;0.57;0.30;;;;;;;17.98;62.29;101156.59;5077750;28;20017;-96
2021/08/05 03:42:36;;;;;;;0.10;0.10;;;;;;;18.03;62.38;101156.38;5078318;28;20032;-96
2021/08/05 03:45:03;;;;;;;0.10;0.10;;;;;;;18.05;62.16;101162.53;5077905;28;20124;-96
2021/08/05 03:47:29;;;;;;;0.00;0.00;;;;;;;18.07;62.14;101150.81;5079157;28;20024;-96
2021/08/05 03:49:55;;;;;;;0.10;0.10;;;;;;;18.09;61.86;101148.94;5079436;28;20486;-95
2021/08/05 03:52:22;;;;;;;0.32;0.32;;;;;;;18.11;62.21;101149.69;5079247;28;20070;-96
2021/08/05 03:54:48;;;;;;;0.10;0.10;;;;;;;18.14;61.99;101150.50;5078096;28;20028;-96
2021/08/05 03:57:14;;;;;;;0.10;0.10;;;;;;;18.15;62.42;101145.06;5078228;28;20480;-96
2021/08/05 03:59:41;;;;;;;0.10;0.10;;;;;;;18.19;62.15;101148.47;5077822;28;20031;-96
2021/08/05 04:02:07;;;;;;;0.10;0.10;;;;;;;18.21;62.26;101146.59;5077415;28;20032;-96
2021/08/05 04:04:33;;;;;;;0.08;0.08;;;;;;;18.24;62.25;101149.13;5077364;28;20543;-96
2021/08/05 04:06:59;;;;;;;0.95;0.95;;;;;;;18.24;62.41;101151.81;5077434;28;20038;-96
2021/08/05 04:09:26;;;;;;;0.10;0.10;;;;;;;18.24;62.53;101149.13;5077541;28;20056;-95
2021/08/05 04:11:52;;;;;;;0.05;0.05;;;;;;;18.27;62.17;101144.50;5080550;28;20043;-96
2021/08/05 04:14:18;;;;;;;0.32;0.32;;;;;;;18.30;62.81;101143.47;5080817;28;20020;-96
2021/08/05 04:16:45;;;;;;;0.85;0.85;;;;;;;18.34;62.44;101142.38;5079698;28;20433;-96
2021/08/05 04:19:11;;;;;;;0.98;0.68;;;;;;;18.36;62.44;101145.00;5084269;28;20039;-96
2021/08/05 04:21:37;;;;;;;0.00;0.00;;;;;;;18.37;62.43;101136.03;5081827;28;20153;-95
2021/08/05 04:24:04;;;;;;;0.10;0.10;;;;;;;18.40;62.49;101135.84;5079348;28;20025;-96
2021/08/05 04:26:30;;;;;;;0.10;0.10;;;;;;;18.40;62.49;101142.09;5077969;28;20103;-95
2021/08/05 04:28:56;;;;;;;0.35;0.35;;;;;;;18.43;62.26;101136.59;5078352;28;20044;-95
2021/08/05 04:31:23;;;;;;;0.10;0.10;;;;;;;18.45;62.35;101144.56;5075454;28;20501;-95
2021/08/05 04:33:49;;;;;;;0.10;0.10;;;;;;;18.47;62.62;101134.63;5076740;28;20028;-92
2021/08/05 04:36:15;;;;;;;0.20;0.20;;;;;;;18.48;62.97;101140.84;5070782;28;20017;-92
2021/08/05 04:38:42;;;;;;;0.10;0.10;;;;;;;18.50;62.44;101139.81;5076182;28;20060;-92
2021/08/05 04:41:08;;;;;;;0.10;0.10;;;;;;;18.51;62.39;101135.34;5066545;28;20028;-93
2021/08/05 04:43:34;;;;;;;0.40;0.40;;;;;;;18.53;62.30;101136.13;5075996;28;20036;-93
2021/08/05 04:46:00;;;;;;;0.10;0.10;;;;;;;18.56;62.54;101136.00;5073699;28;20044;-93
2021/08/05 04:48:29;;;;;;;0.10;0.10;;;;;;;18.59;62.86;101130.47;5057461;28;20040;-93
2021/08/05 04:50:55;;;;;;;0.13;0.13;;;;;;;18.62;63.62;101133.00;5067046;28;20028;-92
2021/08/05 04:53:24;;;;;;;0.17;0.17;;;;;;;18.67;63.07;101130.97;5076483;28;20036;-93
2021/08/05 04:55:51;;;;;;;0.15;0.15;;;;;;;18.72;62.97;101139.66;5075448;28;20029;-94
2021/08/05 04:58:17;;;;;;;0.10;0.10;;;;;;;18.72;63.93;101147.69;5075097;28;20142;-93
2021/08/05 05:00:43;;;;;;;0.10;0.10;;;;;;;18.76;63.34;101141.22;5074575;28;20078;-93
2021/08/05 05:03:16;;;;;;;0.10;0.10;;;;;;;18.83;63.32;101144.50;5068600;28;20039;-94
2021/08/05 05:05:44;;;;;;;0.10;0.10;;;;;;;18.82;63.46;101149.94;5075219;28;20117;-94
2021/08/05 05:08:14;;;;;;;0.10;0.10;;;;;;;18.83;63.37;101143.59;5075750;28;20086;-94
2021/08/05 05:10:43;;;;;;;0.10;0.10;;;;;;;18.86;62.95;101140.78;5073762;28;20078;-95
2021/08/05 05:13:14;;;;;;;0.77;0.77;;;;;;;18.92;62.99;101138.69;5074384;28;20032;-93
2021/08/05 05:15:43;;;;;;;0.10;0.10;;;;;;;18.96;63.10;101139.41;5073400;28;20025;-94
2021/08/05 05:18:11;;;;;;;0.40;0.32;;;;;;;19.03;62.71;101129.22;5053821;28;20029;-94
2021/08/05 05:20:40;;;;;;;0.08;0.08;;;;;;;19.08;62.92;101130.72;5045115;28;20060;-93
2021/08/05 05:23:07;;;;;;;0.10;0.10;;;;;;;19.12;62.73;101127.91;5053367;28;20063;-94
2021/08/05 05:25:35;;;;;;;0.03;0.03;;;;;;;19.17;62.67;101117.78;5055654;28;20033;-93
2021/08/05 05:28:01;;;;;;;0.10;0.10;;;;;;;19.22;62.73;101118.41;5020219;28;20109;-94
2021/08/05 05:30:28;;;;;;;0.25;0.25;;;;;;;19.28;62.64;101114.50;5036794;28;20377;-89
2021/08/05 05:32:58;;;;;;;0.10;0.10;;;;;;;19.35;62.96;101114.13;5044002;28;20120;-95
2021/08/05 05:35:27;;;;;;;0.10;0.10;;;;;;;19.38;62.72;101107.72;5046510;28;20492;-94
2021/08/05 05:37:55;;;;;;;0.10;0.10;;;;;;;19.43;62.75;101107.47;5027826;28;20034;-94
2021/08/05 05:40:22;;;;;;;0.10;0.10;;;;;;;19.48;62.64;101108.09;5024028;28;20044;-93
2021/08/05 05:42:49;;;;;;;0.30;0.30;;;;;;;19.50;63.11;101108.88;5021528;28;20040;-93
2021/08/05 05:45:17;;;;;;;0.30;0.30;;;;;;;19.55;62.84;101107.69;5027345;28;20022;-95
2021/08/05 05:47:44;;;;;;;0.63;0.63;;;;;;;19.62;62.63;101110.91;5026895;28;20088;-95
2021/08/05 05:50:12;;;;;;;0.10;0.10;;;;;;;19.70;62.66;101114.06;5033786;23;20124;-90
2021/08/05 05:52:39;;;;;;;0.20;0.20;;;;;;;19.79;62.43;101117.19;5023296;28;20522;-90
2021/08/05 05:55:06;;;;;;;0.10;0.10;;;;;;;19.83;62.19;101113.44;5029979;28;20037;-91
2021/08/05 05:57:33;;;;;;;0.13;0.13;;;;;;;19.90;62.01;101111.25;5019276;28;20034;-93
2021/08/05 06:00:00;;;;;;;0.10;0.10;;;;;;;19.94;62.31;101113.69;5028557;28;20022;-95
2021/08/05 06:02:26;;;;;;;0.10;0.10;;;;;;;20.03;61.92;101121.25;5015726;28;20026;-92
2021/08/05 06:04:52;;;;;;;0.10;0.10;;;;;;;20.06;61.92;101125.59;5018046;28;20493;-92
2021/08/05 06:07:18;;;;;;;0.10;0.10;;;;;;;20.11;61.62;101122.66;5013691;28;20508;-86
2021/08/05 06:09:45;;;;;;;0.20;0.20;;;;;;;20.17;61.34;101117.78;5012965;28;20078;-88
2021/08/05 06:12:11;;;;;;;0.15;0.15;;;;;;;20.21;61.61;101115.78;5012826;28;20026;-90
2021/08/05 06:14:37;;;;;;;0.17;0.17;;;;;;;20.27;61.82;101120.81;5011821;28;20042;-88
2021/08/05 06:17:03;;;;;;;0.10;0.10;;;;;;;20.31;62.17;101118.84;5013878;28;20041;-89
2021/08/05 06:19:30;;;;;;;2.80;0.50;;;;;;;20.31;61.29;101108.97;5013340;28;20030;-90
2021/08/05 06:21:58;;;;;;;0.10;0.10;;;;;;;20.43;61.36;101107.38;5014339;28;20044;-89
2021/08/05 06:24:25;;;;;;;0.15;0.15;;;;;;;20.49;61.76;101111.56;5014886;28;20041;-90
2021/08/05 06:26:51;;;;;;;0.10;0.10;;;;;;;20.60;61.59;101108.22;5014242;28;20026;-91
2021/08/05 06:29:18;;;;;;;0.30;0.30;;;;;;;20.71;61.06;101115.69;5014261;28;20030;-90
2021/08/05 06:31:44;;;;;;;0.10;0.10;;;;;;;20.77;60.82;101110.84;5014125;28;20037;-90
2021/08/05 06:34:11;;;;;;;0.20;0.20;;;;;;;20.85;61.02;101116.63;5014427;28;20477;-89
2021/08/05 06:36:37;;;;;;;0.10;0.10;;;;;;;20.91;60.87;101111.84;5014529;28;20037;-89
2021/08/05 06:39:04;;;;;;;0.20;0.20;;;;;;;21.01;60.75;101116.59;5029309;28;20040;-90
2021/08/05 06:41:32;;;;;;;0.10;0.10;;;;;;;21.07;60.81;101118.06;5034506;28;20381;-89
2021/08/05 06:43:58;;;;;;;0.13;0.13;;;;;;;21.13;60.69;101116.81;5034190;28;20034;-90
2021/08/05 06:46:26;;;;;;;0.17;0.17;;;;;;;21.19;60.56;101113.75;5030373;28;20053;-90
2021/08/05 06:48:53;;;;;;;0.10;0.10;;;;;;;21.26;60.41;101109.72;5025021;28;20038;-89
2021/08/05 06:51:19;;;;;;;0.47;0.38;;;;;;;21.31;60.50;101115.69;5028913;28;20084;-89
2021/08/05 06:53:45;;;;;;;0.43;0.43;;;;;;;21.26;60.75;101109.72;5025745;28;20120;-88
2021/08/05 06:56:11;;;;;;;0.20;0.20;;;;;;;21.35;60.91;101113.69;5026282;28;20025;-88
2021/08/05 06:58:37;;;;;;;0.20;0.20;;;;;;;21.43;60.79;101105.13;5027509;28;20147;-88
2021/08/05 07:01:04;;;;;;;0.57;0.57;;;;;;;21.52;60.64;101107.28;5026537;28;20121;-88
2021/08/05 07:03:30;;;;;;;0.40;0.40;;;;;;;21.62;60.47;101103.06;5020394;28;20018;-88
2021/08/05 07:05:56;;;;;;;0.20;0.20;;;;;;;21.68;60.69;101119.81;5017627;28;20473;-88
2021/08/05 07:08:22;;;;;;;0.10;0.10;;;;;;;21.76;60.50;101115.66;5019333;28;20030;-91
2021/08/05 07:10:48;;;;;;;0.10;0.10;;;;;;;21.82;60.27;101103.66;5016945;28;20022;-88
2021/08/05 07:13:15;;;;;;;0.32;0.32;;;;;;;21.93;59.69;101101.13;5017259;28;20038;-88
2021/08/05 07:15:42;;;;;;;0.60;0.60;;;;;;;22.01;59.82;101103.31;5024862;28;20048;-90
2021/08/05 07:18:08;;;;;;;0.30;0.30;;;;;;;22.14;59.57;101103.38;5018300;28;20034;-89
2021/08/05 07:23:31;;;;;;;0.10;0.10;;;;;;;22.42;57.99;101098.94;5147401;23;20163;-96
2021/08/05 07:29:29;;;;;;;0.20;0.20;;;;;;;22.54;57.88;101090.03;5514677;23;20080;-90
2021/08/05 07:32:11;;;;;;;0.15;0.15;;;;;;;22.71;57.45;101086.16;4942934;28;20043;-94
2021/08/05 07:34:53;;;;;;;;;;;;;;;;;;;;;
2021/08/05 07:38:00;;;;;;;;;;;;;;;;;;;;;
2021/08/05 07:41:13;;;;;;;0.43;0.43;;;;;;;22.93;56.60;101079.31;4895506;29;20526;-91
2021/08/05 07:50:30;;;;;;;0.15;0.15;;;;;;;23.28;56.12;101073.34;5518034;23;20558;-93
2021/08/05 08:15:26;;;;;;;0.10;0.10;;;;;;;23.84;53.38;101064.84;5271516;23;20054;-89
2021/08/05 08:17:58;;;;;;;0.10;0.10;;;;;;;23.93;53.96;101062.50;4933952;29;20047;-91
2021/08/05 08:20:27;;;;;;;;;;;;;;;24.14;53.36;101065.44;4955310;28;20103;-93
2021/08/05 08:23:11;;;;;;;0.10;0.10;;;;;;;24.10;52.24;101069.34;4956245;29;19915;-92
2021/08/05 08:25:40;;;;;;;0.15;0.15;;;;;;;24.25;53.14;101061.94;4955212;29;20024;-92
2021/08/05 08:28:11;;;;;;;0.25;0.25;;;;;;;24.34;53.25;101066.69;4955775;29;20110;-90
2021/08/05 08:30:38;;;;;;;0.10;0.10;;;;;;;24.38;52.74;101068.16;4955113;28;20031;-90
2021/08/05 08:33:51;;;;;;;0.35;0.35;;;;;;;24.57;52.51;101074.91;4957627;28;20302;-91
2021/08/05 08:37:58;;;;;;;0.47;0.45;;;;;;;24.58;52.06;101068.50;4941743;28;20495;-93
2021/08/05 08:41:36;;;;;;;;;;;;;;;;;;;;;
2021/08/05 08:57:26;;;;;;;;;;;;;;;;;;;;;
2021/08/05 09:00:41;;;;;;;0.28;0.28;;;;;;;24.42;51.14;101058.81;5018021;23;20061;-93
2021/08/05 09:07:13;;;;;;;0.10;0.10;;;;;;;24.58;49.97;101052.25;4882532;29;20104;-94
2021/08/05 09:35:05;;;;;;;0.10;0.10;;;;;;;25.08;48.09;101011.41;4852258;29;20065;-91
2021/08/05 09:37:36;;;;;;;0.10;0.10;;;;;;;25.14;48.44;101011.78;4860399;29;20033;-89
2021/08/05 09:40:14;;;;;;;0.30;0.30;;;;;;;25.33;48.21;100999.47;4860274;29;20033;-89
2021/08/05 09:43:00;;;;;;;0.10;0.10;;;;;;;25.55;47.58;101003.22;4859855;29;20442;-90
2021/08/05 09:45:42;;;;;;;0.30;0.30;;;;;;;25.49;47.29;101005.41;4860208;29;20033;-90
2021/08/05 09:48:08;;;;;;;0.10;0.10;;;;;;;25.58;47.53;101005.66;4860389;29;20026;-89
2021/08/05 09:50:34;;;;;;;0.63;0.63;;;;;;;25.65;47.18;101005.03;4864509;29;20040;-89
2021/08/05 09:53:12;;;;;;;0.13;0.13;;;;;;;25.82;46.39;101005.47;4867546;29;20030;-89
2021/08/05 09:55:41;;;;;;;0.10;0.10;;;;;;;25.73;45.28;101001.69;4869313;29;20033;-89
2021/08/05 09:58:08;;;;;;;0.30;0.30;;;;;;;25.87;46.30;100991.53;4863001;29;20050;-90
2021/08/05 10:00:42;;;;;;;0.10;0.10;;;;;;;26.02;45.23;100992.13;4865260;29;20404;-89
2021/08/05 10:03:29;;;;;;;0.57;0.57;;;;;;;26.11;46.97;100989.53;4868093;29;20500;-91
2021/08/05 10:06:00;;;;;;;0.10;0.10;;;;;;;26.11;45.06;100989.53;4859883;29;20049;-90
2021/08/05 10:08:51;;;;;;;0.10;0.10;;;;;;;26.14;44.90;100992.00;4858076;29;20169;-92
2021/08/05 10:11:17;;;;;;;0.73;0.73;;;;;;;26.12;46.00;100980.41;4869706;29;20040;-89
2021/08/05 10:13:43;;;;;;;0.43;0.43;;;;;;;26.09;44.73;100980.66;4877714;29;20077;-92
2021/08/05 10:16:12;;;;;;;0.10;0.10;;;;;;;26.14;45.08;100988.41;4868765;29;20038;-89
2021/08/05 10:18:40;;;;;;;0.63;0.63;;;;;;;26.29;45.59;100980.81;4844250;29;20060;-90
2021/08/05 10:21:09;;;;;;;0.10;0.10;;;;;;;26.36;44.66;100979.31;4861117;29;20034;-90
2021/08/05 10:23:38;;;;;;;0.10;0.10;;;;;;;26.48;44.86;100975.56;4863347;29;20843;-91
2021/08/05 10:26:08;;;;;;;0.20;0.20;;;;;;;26.59;44.56;100971.06;4865123;29;20037;-89
2021/08/05 10:28:37;;;;;;;0.20;0.20;;;;;;;26.70;44.65;100979.13;4864014;29;20033;-89
2021/08/05 10:31:08;;;;;;;0.20;0.20;;;;;;;26.89;44.09;100975.72;4862663;29;20098;-90
2021/08/05 10:33:34;;;;;;;0.52;0.52;;;;;;;26.83;41.94;100968.13;4863425;29;20108;-90
2021/08/05 10:36:05;;;;;;;0.10;0.10;;;;;;;26.96;44.05;100974.16;4866190;29;20073;-90
2021/08/05 10:38:39;;;;;;;0.43;0.43;;;;;;;27.02;44.53;100961.91;4875881;29;20029;-90
2021/08/05 10:41:08;;;;;;;0.10;0.10;;;;;;;27.23;43.71;100963.75;4864107;29;20029;-90
2021/08/05 10:43:36;;;;;;;0.50;0.50;;;;;;;27.33;42.50;100964.63;4869618;29;20029;-89
2021/08/05 10:46:06;;;;;;;0.10;0.10;;;;;;;27.38;41.35;100962.34;4875139;29;20037;-90
2021/08/05 10:48:32;;;;;;;0.32;0.32;;;;;;;27.48;40.30;100953.38;4867626;29;20033;-89
2021/08/05 10:51:00;;;;;;;0.40;0.40;;;;;;;27.56;41.55;100946.25;4864960;29;20444;-88
2021/08/05 11:19:38;;;;;;;0.25;0.25;;;;;;;27.92;39.08;100926.69;5097931;27;20491;-83
2021/08/05 11:22:39;;;;;;;1.38;0.38;;;;;;;28.05;38.48;100910.97;5090136;28;20067;-83
2021/08/05 11:25:05;;;;;;;0.10;0.10;;;;;;;27.79;36.52;100915.19;5088284;28;20028;-83
2021/08/05 11:27:31;;;;;;;0.30;0.30;;;;;;;27.86;38.05;100910.91;5088650;28;20047;-82
2021/08/05 11:29:58;;;;;;;0.10;0.10;;;;;;;27.94;38.26;100905.63;5089050;28;20036;-82
2021/08/05 11:35:08;;;;;;;0.20;0.20;;;;;;;28.12;37.98;100894.91;5065355;28;21004;-81
2021/08/05 11:37:35;;;;;;;0.17;0.17;;;;;;;28.19;38.14;100890.59;5069194;28;20033;-82
2021/08/05 11:40:04;;;;;;;0.10;0.10;;;;;;;28.30;38.24;100886.88;5059357;28;20033;-84
2021/08/05 11:42:31;;;;;;;0.10;0.10;;;;;;;28.32;38.72;100895.72;5047689;28;20029;-82
2021/08/05 11:50:19;;;;;;;0.75;0.55;;;;;;;28.56;38.09;100869.84;5061392;27;20921;-81
2021/08/05 11:52:47;;;;;;;0.03;0.03;;;;;;;28.69;38.48;100864.97;5049871;28;20039;-81
2021/08/05 12:00:39;;;;;;;0.10;0.10;;;;;;;29.16;37.31;100849.53;5041580;27;20401;-81
2021/08/05 12:03:07;;;;;;;;;;;;;;;29.43;36.32;100850.56;5031187;28;20032;-82
2021/08/05 12:05:38;;;;;;;0.10;0.10;;;;;;;29.39;37.42;100849.19;5031698;28;19956;-82
2021/08/05 12:08:06;;;;;;;0.10;0.10;;;;;;;29.35;37.19;100848.63;5037571;28;20030;-82
2021/08/05 12:10:33;;;;;;;1.23;0.63;;;;;;;29.41;36.77;100836.22;5038273;28;20028;-83
2021/08/05 12:13:04;;;;;;;0.25;0.25;;;;;;;29.43;36.89;100837.78;5041917;28;20420;-82
2021/08/05 12:18:16;;;;;;;0.10;0.10;;;;;;;29.64;36.39;100836.63;5078130;28;20451;-92
2021/08/05 12:21:04;;;;;;;0.05;0.05;;;;;;;29.89;34.98;100839.59;5054667;28;20061;-83
2021/08/05 12:23:39;;;;;;;0.10;0.10;;;;;;;29.81;35.71;100827.56;5046232;28;20151;-84
2021/08/05 12:28:54;;;;;;;0.30;0.30;;;;;;;29.45;36.04;100830.31;5077377;28;20400;-83
2021/08/05 12:31:24;;;;;;;0.20;0.20;;;;;;;29.36;36.01;100823.91;5049493;28;20043;-83
2021/08/05 12:33:50;;;;;;;0.10;0.10;;;;;;;29.24;35.64;100827.81;5047107;28;20030;-83
2021/08/05 12:39:07;;;;;;;0.32;0.32;;;;;;;29.30;36.11;100812.75;5141306;27;20928;-83
2021/08/05 12:41:39;;;;;;;0.40;0.40;;;;;;;29.43;36.13;100812.38;5107104;28;20032;-83
2021/08/05 12:44:08;;;;;;;;;;;;;;;29.72;35.18;100811.25;5102061;28;20028;-91
2021/08/05 12:46:35;;;;;;;0.43;0.43;;;;;;;29.73;35.23;100807.53;5108808;28;19961;-83
2021/08/05 12:49:02;;;;;;;0.20;0.20;;;;;;;29.79;35.07;100812.34;5107049;28;20055;-84
2021/08/05 12:51:30;;;;;;;0.20;0.20;;;;;;;29.68;33.39;100799.78;5108100;28;20038;-84
2021/08/05 12:54:19;;;;;;;0.80;0.80;;;;;;;29.84;34.35;100794.47;5108980;28;20032;-83
2021/08/05 12:56:47;;;;;;;0.22;0.22;;;;;;;29.86;34.94;100797.06;5107742;28;20032;-85
2021/08/05 12:59:15;;;;;;;1.75;0.43;;;;;;;29.84;33.40;100788.16;5109245;28;20047;-86
2021/08/05 13:01:42;;;;;;;0.10;0.10;;;;;;;29.73;33.26;100783.78;5108946;28;20489;-83
2021/08/05 13:07:04;;;;;;;0.43;0.43;;;;;;;29.88;34.34;100788.72;5060689;27;20444;-84
2021/08/05 13:09:32;;;;;;;0.70;0.55;;;;;;;29.97;34.44;100794.09;5049571;28;20049;-85
2021/08/05 13:12:22;;;;;;;0.13;0.13;;;;;;;30.08;33.95;100787.50;5042067;28;20034;-94
2021/08/05 13:14:55;;;;;;;0.10;0.10;;;;;;;30.00;33.48;100790.19;5059833;22;20025;-95
2021/08/05 13:17:21;;;;;;;0.10;0.10;;;;;;;30.00;33.67;100792.94;5048837;28;20102;-83
2021/08/05 13:20:09;;;;;;;0.20;0.20;;;;;;;30.18;34.26;100774.63;5041519;28;20033;-83
2021/08/05 13:22:44;;;;;;;0.10;0.10;;;;;;;30.22;33.90;100777.88;5046167;28;20025;-85
2021/08/05 13:25:13;;;;;;;0.45;0.43;;;;;;;30.36;33.59;100775.56;5041050;28;20033;-84
2021/08/05 13:27:40;;;;;;;0.10;0.10;;;;;;;30.62;34.38;100773.69;5044498;28;20022;-83
2021/08/05 13:32:56;;;;;;;0.90;0.90;;;;;;;31.07;33.48;100768.91;5067676;28;20406;-83
2021/08/05 13:35:24;;;;;;;1.35;1.10;;;;;;;31.00;31.91;100765.09;5058217;28;20032;-82
2021/08/05 13:38:00;;;;;;;0.10;0.10;;;;;;;30.89;32.07;100760.78;5056343;28;20033;-82
2021/08/05 13:40:28;;;;;;;0.30;0.30;;;;;;;30.86;31.83;100755.66;5048829;28;20087;-81
2021/08/05 13:42:54;;;;;;;0.13;0.13;;;;;;;30.97;32.15;100751.75;5047964;28;20032;-82
2021/08/05 13:45:21;;;;;;;0.30;0.30;;;;;;;30.88;30.77;100747.28;5048334;28;20477;-82
2021/08/05 13:47:48;;;;;;;0.20;0.20;;;;;;;30.91;31.86;100747.78;5048400;28;20104;-82
2021/08/05 13:53:06;;;;;;;0.10;0.10;;;;;;;30.76;32.58;100739.38;5063794;28;20534;-83
2021/08/05 13:55:35;;;;;;;0.30;0.30;;;;;;;30.79;31.93;100743.66;5044671;28;20499;-83
2021/08/05 13:58:02;;;;;;;1.40;1.15;;;;;;;30.77;32.62;100738.34;5041968;28;20380;-82
2021/08/05 14:00:29;;;;;;;0.00;0.00;;;;;;;30.75;32.69;100745.88;5039446;28;20105;-83
2021/08/05 14:02:56;;;;;;;0.20;0.20;;;;;;;30.55;32.25;100741.69;5028480;28;20401;-83
2021/08/05 14:05:23;;;;;;;0.20;0.20;;;;;;;30.29;32.02;100737.94;5037827;28;20032;-83
2021/08/05 14:07:51;;;;;;;2.85;0.82;;;;;;;30.23;33.30;100733.13;5041623;28;20120;-82
2021/08/05 14:10:18;;;;;;;0.10;0.10;;;;;;;30.09;33.18;100739.19;5040591;28;20048;-83